createdAt,value
2019-05-19T00:01:27.293Z,85.28
2019-05-19T00:03:38.237Z,85.38
2019-05-19T00:05:49.105Z,85.13
2019-05-19T00:07:59.949Z,85.14
2019-05-19T00:10:10.963Z,85.34
2019-05-19T00:12:21.933Z,85.36
2019-05-19T00:14:32.877Z,85.70
2019-05-19T00:16:43.757Z,85.88
2019-05-19T00:18:54.610Z,86.05
2019-05-19T00:21:05.471Z,86.13
2019-05-19T00:23:16.298Z,86.10
2019-05-19T00:25:27.214Z,86.18
2019-05-19T00:27:38.088Z,86.25
2019-05-19T00:29:48.922Z,86.27
2019-05-19T00:31:59.833Z,86.50
2019-05-19T00:34:10.657Z,86.79
2019-05-19T00:36:21.517Z,87.39
2019-05-19T00:38:32.375Z,87.62
2019-05-19T00:40:43.232Z,87.54
2019-05-19T00:42:54.068Z,87.62
2019-05-19T00:45:06.525Z,87.51
2019-05-19T00:47:17.479Z,87.30
2019-05-19T00:49:40.565Z,87.12
2019-05-19T00:51:41.294Z,87.04
2019-05-19T00:53:52.228Z,87.04
2019-05-19T00:56:03.298Z,87.08
2019-05-19T00:58:14.248Z,87.13
2019-05-19T01:00:25.105Z,87.19
2019-05-19T01:02:35.975Z,87.17
2019-05-19T01:04:46.804Z,87.26
2019-05-19T01:06:57.750Z,87.19
2019-05-19T01:09:08.738Z,87.18
2019-05-19T01:11:19.613Z,87.20
2019-05-19T01:13:30.447Z,87.19
2019-05-19T01:15:41.313Z,87.13
2019-05-19T01:17:52.178Z,87.02
2019-05-19T01:20:04.625Z,86.97
2019-05-19T01:22:15.664Z,86.95
2019-05-19T01:24:26.523Z,87.18
2019-05-19T01:26:37.689Z,87.48
2019-05-19T01:28:48.562Z,87.50
2019-05-19T01:30:59.506Z,87.58
2019-05-19T01:33:10.373Z,87.71
2019-05-19T01:35:21.313Z,88.01
2019-05-19T01:37:32.205Z,88.43
2019-05-19T01:39:43.126Z,88.45
2019-05-19T01:41:53.970Z,88.37
2019-05-19T01:44:04.932Z,88.27
2019-05-19T01:46:15.778Z,88.25
2019-05-19T01:48:28.142Z,88.15
2019-05-19T01:50:39.081Z,88.31
2019-05-19T01:52:50.070Z,88.31
2019-05-19T01:55:01.221Z,88.20
2019-05-19T01:57:12.140Z,88.12
2019-05-19T01:59:23.001Z,88.32
2019-05-19T02:01:33.850Z,88.33
2019-05-19T02:03:44.713Z,88.36
2019-05-19T02:05:55.542Z,88.30
2019-05-19T02:08:06.412Z,88.32
2019-05-19T02:10:17.349Z,88.40
2019-05-19T02:12:28.293Z,88.54
2019-05-19T02:14:39.159Z,89.01
2019-05-19T02:16:50.083Z,89.29
2019-05-19T02:19:00.955Z,89.41
2019-05-19T02:21:11.809Z,89.45
2019-05-19T02:23:22.672Z,89.51
2019-05-19T02:25:33.744Z,89.64
2019-05-19T02:27:44.587Z,89.48
2019-05-19T02:29:55.466Z,89.53
2019-05-19T02:32:06.301Z,89.55
2019-05-19T02:34:17.266Z,89.42
2019-05-19T02:36:28.207Z,89.21
2019-05-19T02:38:39.038Z,89.03
2019-05-19T02:40:53.530Z,89.16
2019-05-19T02:43:04.887Z,89.20
2019-05-19T02:45:15.953Z,89.05
2019-05-19T02:47:26.952Z,89.19
2019-05-19T02:49:38.008Z,89.03
2019-05-19T02:51:49.844Z,89.00
2019-05-19T02:54:02.490Z,89.01
2019-05-19T02:56:13.657Z,89.24
2019-05-19T02:58:24.912Z,89.47
2019-05-19T03:00:37.699Z,89.68
2019-05-19T03:02:48.545Z,89.73
2019-05-19T03:04:59.413Z,89.84
2019-05-19T03:07:10.377Z,89.73
2019-05-19T03:09:21.234Z,89.66
2019-05-19T03:11:32.095Z,89.62
2019-05-19T03:13:43.054Z,89.59
2019-05-19T03:15:53.914Z,89.54
2019-05-19T03:18:04.977Z,89.44
2019-05-19T03:20:15.935Z,89.33
2019-05-19T03:22:26.775Z,89.33
2019-05-19T03:24:37.610Z,89.31
2019-05-19T03:26:48.770Z,89.31
2019-05-19T03:28:59.654Z,89.24
2019-05-19T03:31:12.398Z,89.34
2019-05-19T03:33:25.157Z,89.42
2019-05-19T03:35:36.037Z,89.47
2019-05-19T03:37:46.864Z,89.36
2019-05-19T03:39:57.870Z,89.35
2019-05-19T03:42:10.483Z,89.31
2019-05-19T03:44:21.507Z,89.06
2019-05-19T03:46:32.352Z,89.01
2019-05-19T03:48:43.219Z,88.87
2019-05-19T03:50:54.057Z,88.46
2019-05-19T03:53:04.915Z,88.54
2019-05-19T03:55:15.858Z,88.45
2019-05-19T03:57:26.715Z,88.42
2019-05-19T03:59:37.551Z,88.35
2019-05-19T04:01:48.419Z,88.36
2019-05-19T04:03:59.270Z,88.41
2019-05-19T04:06:10.229Z,88.25
2019-05-19T04:08:21.097Z,87.66
2019-05-19T04:10:31.963Z,88.20
2019-05-19T04:12:42.832Z,88.11
2019-05-19T04:14:53.674Z,88.03
2019-05-19T04:17:04.531Z,87.92
2019-05-19T04:19:15.413Z,87.75
2019-05-19T04:21:26.257Z,87.75
2019-05-19T04:23:37.122Z,87.57
2019-05-19T04:25:48.065Z,87.13
2019-05-19T04:27:58.934Z,87.11
2019-05-19T04:30:10.006Z,87.04
2019-05-19T04:32:20.844Z,87.08
2019-05-19T04:34:31.723Z,87.24
2019-05-19T04:36:42.564Z,87.20
2019-05-19T04:38:53.411Z,86.81
2019-05-19T04:41:04.346Z,86.36
2019-05-19T04:43:15.205Z,85.81
2019-05-19T04:45:26.077Z,85.41
2019-05-19T04:47:37.045Z,84.91
2019-05-19T04:49:48.030Z,83.71
2019-05-19T04:52:06.514Z,83.34
2019-05-19T04:54:11.650Z,82.75
2019-05-19T04:56:22.495Z,82.19
2019-05-19T04:58:33.346Z,81.81
2019-05-19T05:00:44.249Z,81.08
2019-05-19T05:02:55.099Z,81.09
2019-05-19T05:05:06.073Z,81.22
2019-05-19T05:07:17.020Z,80.65
2019-05-19T05:09:27.868Z,80.11
2019-05-19T05:11:38.757Z,79.61
2019-05-19T05:13:49.605Z,78.90
2019-05-19T05:16:00.487Z,78.38
2019-05-19T05:18:11.449Z,76.97
2019-05-19T05:20:22.811Z,76.77
2019-05-19T05:22:33.745Z,76.04
2019-05-19T05:24:44.602Z,76.43
2019-05-19T05:26:55.446Z,75.72
2019-05-19T05:29:09.096Z,75.51
2019-05-19T05:31:19.965Z,76.30
2019-05-19T05:33:30.812Z,75.99
2019-05-19T05:35:41.701Z,76.27
2019-05-19T05:37:52.566Z,76.10
2019-05-19T05:40:05.746Z,76.56
2019-05-19T05:42:16.802Z,76.24
2019-05-19T05:44:27.650Z,75.92
2019-05-19T05:46:38.521Z,73.32
2019-05-19T05:48:49.356Z,71.60
2019-05-19T05:51:00.216Z,70.30
2019-05-19T05:53:11.081Z,70.61
2019-05-19T05:55:21.943Z,71.95
2019-05-19T05:57:32.814Z,72.71
2019-05-19T05:59:43.658Z,73.28
2019-05-19T06:01:54.533Z,73.55
2019-05-19T06:04:05.470Z,73.64
2019-05-19T06:06:16.458Z,72.65
2019-05-19T06:08:27.426Z,72.49
2019-05-19T06:10:38.291Z,72.81
2019-05-19T06:12:49.152Z,73.62
2019-05-19T06:15:00.108Z,74.33
2019-05-19T06:17:11.065Z,73.57
2019-05-19T06:19:21.932Z,74.77
2019-05-19T06:21:32.772Z,75.00
2019-05-19T06:23:43.643Z,74.85
2019-05-19T06:25:54.546Z,75.13
2019-05-19T06:28:05.389Z,76.43
2019-05-19T06:30:18.361Z,76.84
2019-05-19T06:32:33.890Z,76.94
2019-05-19T06:34:44.734Z,77.01
2019-05-19T06:36:55.610Z,77.58
2019-05-19T06:39:06.684Z,78.07
2019-05-19T06:41:17.749Z,78.25
2019-05-19T06:43:30.505Z,77.76
2019-05-19T06:45:41.360Z,77.83
2019-05-19T06:47:52.232Z,76.23
2019-05-19T06:50:04.957Z,75.77
2019-05-19T06:52:15.819Z,74.98
2019-05-19T06:54:26.655Z,75.28
2019-05-19T06:56:37.606Z,74.68
2019-05-19T06:58:48.472Z,73.32
2019-05-19T07:00:59.422Z,73.39
2019-05-19T07:03:10.433Z,73.15
2019-05-19T07:05:21.398Z,72.89
2019-05-19T07:07:32.269Z,72.91
2019-05-19T07:09:57.503Z,72.03
2019-05-19T07:11:55.864Z,70.42
2019-05-19T07:14:07.506Z,72.30
2019-05-19T07:16:18.347Z,72.56
2019-05-19T07:18:29.203Z,72.74
2019-05-19T07:20:40.054Z,72.84
2019-05-19T07:22:50.913Z,72.53
2019-05-19T07:25:02.760Z,73.01
2019-05-19T07:27:13.684Z,73.89
2019-05-19T07:29:24.571Z,73.87
2019-05-19T07:31:35.417Z,73.99
2019-05-19T07:33:46.276Z,72.94
2019-05-19T07:35:57.095Z,73.10
2019-05-19T07:38:07.949Z,71.46
2019-05-19T07:40:18.912Z,71.48
2019-05-19T07:42:29.790Z,71.56
2019-05-19T07:44:40.671Z,71.47
2019-05-19T07:46:51.524Z,70.52
2019-05-19T07:49:02.410Z,69.65
2019-05-19T07:51:13.365Z,68.20
2019-05-19T07:53:24.208Z,68.90
2019-05-19T07:55:35.196Z,67.72
2019-05-19T07:57:46.048Z,66.92
2019-05-19T07:59:56.901Z,67.55
2019-05-19T08:02:07.763Z,68.15
2019-05-19T08:04:18.625Z,68.60
2019-05-19T08:06:29.489Z,68.36
2019-05-19T08:08:40.337Z,68.31
2019-05-19T08:10:51.225Z,67.48
2019-05-19T08:13:02.156Z,65.85
2019-05-19T08:15:13.237Z,63.64
2019-05-19T08:17:25.992Z,65.20
2019-05-19T08:19:36.978Z,63.92
2019-05-19T08:21:47.923Z,63.20
2019-05-19T08:24:00.854Z,64.34
2019-05-19T08:26:11.695Z,65.02
2019-05-19T08:28:22.542Z,67.15
2019-05-19T08:30:33.601Z,66.43
2019-05-19T08:32:44.557Z,66.91
2019-05-19T08:34:55.510Z,66.04
2019-05-19T08:37:06.395Z,66.92
2019-05-19T08:39:17.234Z,68.06
2019-05-19T08:41:28.086Z,69.34
2019-05-19T08:43:38.931Z,69.83
2019-05-19T08:45:49.826Z,69.01
2019-05-19T08:48:00.769Z,69.37
2019-05-19T08:50:11.930Z,69.54
2019-05-19T08:52:22.802Z,69.05
2019-05-19T08:54:33.711Z,67.65
2019-05-19T08:56:44.572Z,67.07
2019-05-19T08:58:55.514Z,66.10
2019-05-19T09:01:06.359Z,66.82
2019-05-19T09:03:17.226Z,65.24
2019-05-19T09:05:28.089Z,65.47
2019-05-19T09:07:38.959Z,62.64
2019-05-19T09:09:49.790Z,63.42
2019-05-19T09:12:00.715Z,62.55
2019-05-19T09:14:11.753Z,61.91
2019-05-19T09:16:22.730Z,61.42
2019-05-19T09:18:33.591Z,63.51
2019-05-19T09:20:44.445Z,61.79
2019-05-19T09:22:55.420Z,62.52
2019-05-19T09:25:08.323Z,63.51
2019-05-19T09:27:19.175Z,61.67
2019-05-19T09:29:30.157Z,60.35
2019-05-19T09:31:41.549Z,60.35
2019-05-19T09:33:52.611Z,59.02
2019-05-19T09:36:03.480Z,59.08
2019-05-19T09:38:14.494Z,60.06
2019-05-19T09:40:26.775Z,61.09
2019-05-19T09:42:37.821Z,62.48
2019-05-19T09:44:48.701Z,60.09
2019-05-19T09:46:59.560Z,61.14
2019-05-19T09:49:29.216Z,60.58
2019-05-19T09:51:40.060Z,59.22
2019-05-19T09:53:50.925Z,57.23
2019-05-19T09:56:01.781Z,57.50
2019-05-19T09:58:15.804Z,57.21
2019-05-19T10:00:25.927Z,58.66
2019-05-19T10:02:36.780Z,56.32
2019-05-19T10:04:47.741Z,56.52
2019-05-19T10:06:58.719Z,57.48
2019-05-19T10:09:10.400Z,55.07
2019-05-19T10:11:28.691Z,55.61
2019-05-19T10:13:39.553Z,54.94
2019-05-19T10:15:50.545Z,55.07
2019-05-19T10:18:01.376Z,54.52
2019-05-19T10:20:12.991Z,56.81
2019-05-19T10:22:24.031Z,57.34
2019-05-19T10:24:35.015Z,56.01
2019-05-19T10:26:46.058Z,54.15
2019-05-19T10:28:56.927Z,54.38
2019-05-19T10:31:07.840Z,53.39
2019-05-19T10:33:18.691Z,54.07
2019-05-19T10:35:29.586Z,51.35
2019-05-19T10:37:40.473Z,51.34
2019-05-19T10:39:51.927Z,52.11
2019-05-19T10:42:03.101Z,51.71
2019-05-19T10:44:14.094Z,53.52
2019-05-19T10:46:24.957Z,52.43
2019-05-19T10:48:35.918Z,53.40
2019-05-19T10:50:46.789Z,54.21
2019-05-19T10:52:57.622Z,51.01
2019-05-19T10:55:08.696Z,50.19
2019-05-19T10:57:19.675Z,51.17
2019-05-19T10:59:30.623Z,49.89
2019-05-19T11:01:41.602Z,51.73
2019-05-19T11:03:52.456Z,49.72
2019-05-19T11:06:03.471Z,51.09
2019-05-19T11:08:14.313Z,49.09
2019-05-19T11:10:25.277Z,48.95
2019-05-19T11:12:36.213Z,48.99
2019-05-19T11:14:47.068Z,49.74
2019-05-19T11:16:57.950Z,48.56
2019-05-19T11:19:08.794Z,49.56
2019-05-19T11:21:19.805Z,49.40
2019-05-19T11:23:30.648Z,50.06
2019-05-19T11:25:51.156Z,49.06
2019-05-19T11:27:54.315Z,51.16
2019-05-19T11:30:05.796Z,50.84
2019-05-19T11:32:16.687Z,49.93
2019-05-19T11:34:27.548Z,48.99
2019-05-19T11:36:38.425Z,50.02
2019-05-19T11:38:49.279Z,51.49
2019-05-19T11:41:00.120Z,51.95
2019-05-19T11:43:11.214Z,52.40
2019-05-19T11:45:22.222Z,52.70
2019-05-19T11:47:33.111Z,51.39
2019-05-19T11:49:44.058Z,51.36
2019-05-19T11:51:54.910Z,50.29
2019-05-19T11:54:05.910Z,52.09
2019-05-19T11:56:16.873Z,53.16
2019-05-19T11:58:27.746Z,50.78
2019-05-19T12:00:38.710Z,50.33
2019-05-19T12:02:49.743Z,50.21
2019-05-19T12:05:00.577Z,51.34
2019-05-19T12:07:11.439Z,49.76
2019-05-19T12:09:22.308Z,50.77
2019-05-19T12:11:33.164Z,49.41
2019-05-19T12:13:44.031Z,50.92
2019-05-19T12:15:54.882Z,51.90
2019-05-19T12:18:05.883Z,52.78
2019-05-19T12:20:16.961Z,51.41
2019-05-19T12:22:27.956Z,51.10
2019-05-19T12:24:39.012Z,48.73
2019-05-19T12:26:50.013Z,50.84
2019-05-19T12:29:00.875Z,50.22
2019-05-19T12:31:11.734Z,49.36
2019-05-19T12:33:22.613Z,49.48
2019-05-19T12:35:33.550Z,50.17
2019-05-19T12:37:44.438Z,47.56
2019-05-19T12:39:55.520Z,48.97
2019-05-19T12:42:06.372Z,50.49
2019-05-19T12:44:17.357Z,48.10
2019-05-19T12:46:28.338Z,49.71
2019-05-19T12:48:39.313Z,50.76
2019-05-19T12:50:50.179Z,49.50
2019-05-19T12:53:01.155Z,48.20
2019-05-19T12:55:12.325Z,49.00
2019-05-19T12:57:23.181Z,48.27
2019-05-19T12:59:34.068Z,47.91
2019-05-19T13:01:44.922Z,49.11
2019-05-19T13:03:55.782Z,48.12
2019-05-19T13:06:06.776Z,50.57
2019-05-19T13:08:17.851Z,49.06
2019-05-19T13:10:28.762Z,49.19
2019-05-19T13:12:39.630Z,50.25
2019-05-19T13:14:50.510Z,50.20
2019-05-19T13:17:01.379Z,48.96
2019-05-19T13:19:12.210Z,49.30
2019-05-19T13:21:23.107Z,50.19
2019-05-19T13:23:33.963Z,50.21
2019-05-19T13:25:44.847Z,51.33
2019-05-19T13:27:55.689Z,52.55
2019-05-19T13:30:06.899Z,49.83
2019-05-19T13:32:17.791Z,49.49
2019-05-19T13:34:28.669Z,49.74
2019-05-19T13:36:40.421Z,49.23
2019-05-19T13:38:51.624Z,49.17
2019-05-19T13:41:02.941Z,50.20
2019-05-19T13:43:13.869Z,51.01
2019-05-19T13:45:24.753Z,51.42
2019-05-19T13:47:35.724Z,51.39
2019-05-19T13:49:46.579Z,52.22
2019-05-19T13:51:57.463Z,50.88
2019-05-19T13:54:08.418Z,50.45
2019-05-19T13:56:19.314Z,49.35
2019-05-19T13:58:30.257Z,50.03
2019-05-19T14:00:41.117Z,50.95
2019-05-19T14:02:52.085Z,50.56
2019-05-19T14:05:03.737Z,51.12
2019-05-19T14:07:14.645Z,51.59
2019-05-19T14:09:25.499Z,50.98
2019-05-19T14:11:36.338Z,49.41
2019-05-19T14:13:47.257Z,51.29
2019-05-19T14:15:58.192Z,52.11
2019-05-19T14:18:09.068Z,50.78
2019-05-19T14:20:19.941Z,48.57
2019-05-19T14:22:30.850Z,48.54
2019-05-19T14:24:41.802Z,49.21
2019-05-19T14:26:52.686Z,49.29
2019-05-19T14:29:03.657Z,49.13
2019-05-19T14:31:14.512Z,49.21
2019-05-19T14:33:25.564Z,49.47
2019-05-19T14:35:38.593Z,48.78
2019-05-19T14:37:51.418Z,48.29
2019-05-19T14:40:03.552Z,47.91
2019-05-19T14:42:18.211Z,49.35
2019-05-19T14:44:29.066Z,48.83
2019-05-19T14:46:39.943Z,48.99
2019-05-19T14:48:50.813Z,48.58
2019-05-19T14:51:01.672Z,48.23
2019-05-19T14:53:12.561Z,48.90
2019-05-19T14:55:23.521Z,47.91
2019-05-19T14:57:44.402Z,47.73
2019-05-19T14:59:47.384Z,48.12
2019-05-19T15:01:58.236Z,47.66
2019-05-19T15:04:09.110Z,47.55
2019-05-19T15:06:19.979Z,46.97
2019-05-19T15:08:30.866Z,48.21
2019-05-19T15:10:41.948Z,48.16
2019-05-19T15:12:52.896Z,46.87
2019-05-19T15:15:07.326Z,47.26
2019-05-19T15:17:18.155Z,47.68
2019-05-19T15:19:29.032Z,48.00
2019-05-19T15:21:39.984Z,47.19
2019-05-19T15:23:51.016Z,47.54
2019-05-19T15:26:01.985Z,47.19
2019-05-19T15:28:12.954Z,47.64
2019-05-19T15:30:24.004Z,47.74
2019-05-19T15:32:34.910Z,48.17
2019-05-19T15:34:45.775Z,48.31
2019-05-19T15:36:56.739Z,52.66
2019-05-19T15:39:07.623Z,55.88
2019-05-19T15:41:18.594Z,58.44
2019-05-19T15:43:29.437Z,59.18
2019-05-19T15:45:40.505Z,60.30
2019-05-19T15:47:51.517Z,63.21
2019-05-19T15:50:04.841Z,64.82
2019-05-19T15:52:17.914Z,65.84
2019-05-19T15:54:28.908Z,65.98
2019-05-19T15:56:39.845Z,67.44
2019-05-19T15:58:50.709Z,67.55
2019-05-19T16:01:01.584Z,66.61
2019-05-19T16:03:12.437Z,65.21
2019-05-19T16:05:23.318Z,66.33
2019-05-19T16:07:34.188Z,68.75
2019-05-19T16:09:45.054Z,70.22
2019-05-19T16:11:55.961Z,69.61
2019-05-19T16:14:07.050Z,71.17
2019-05-19T16:16:18.030Z,71.93
2019-05-19T16:18:28.905Z,72.25
2019-05-19T16:20:39.865Z,73.14
2019-05-19T16:22:51.015Z,74.82
2019-05-19T16:25:04.187Z,75.12
2019-05-19T16:27:15.085Z,74.22
2019-05-19T16:29:26.049Z,76.30
2019-05-19T16:31:37.026Z,76.48
2019-05-19T16:33:48.139Z,77.49
2019-05-19T16:35:59.162Z,78.61
2019-05-19T16:38:10.126Z,78.42
2019-05-19T16:40:21.179Z,79.06
2019-05-19T16:42:32.138Z,79.84
2019-05-19T16:44:43.125Z,80.37
2019-05-19T16:46:54.128Z,81.05
2019-05-19T16:49:05.184Z,81.42
2019-05-19T16:51:16.144Z,81.40
2019-05-19T16:53:27.053Z,81.59
2019-05-19T16:55:38.081Z,81.11
2019-05-19T16:57:49.110Z,82.04
2019-05-19T16:59:59.986Z,81.70
2019-05-19T17:02:11.102Z,81.02
2019-05-19T17:04:21.974Z,79.76
2019-05-19T17:06:32.845Z,77.85
2019-05-19T17:08:43.751Z,75.44
2019-05-19T17:10:54.628Z,76.25
2019-05-19T17:13:05.539Z,75.99
2019-05-19T17:15:17.700Z,75.82
2019-05-19T17:17:28.735Z,76.42
2019-05-19T17:19:39.797Z,76.49
2019-05-19T17:21:52.662Z,78.17
2019-05-19T17:24:03.695Z,77.82
2019-05-19T17:26:14.529Z,78.19
2019-05-19T17:28:25.509Z,79.08
2019-05-19T17:30:36.554Z,80.10
2019-05-19T17:32:47.615Z,80.33
2019-05-19T17:34:58.562Z,81.10
2019-05-19T17:37:09.486Z,80.85
2019-05-19T17:39:20.456Z,80.93
2019-05-19T17:41:31.320Z,81.70
2019-05-19T17:43:42.307Z,82.46
2019-05-19T17:45:53.388Z,82.75
2019-05-19T17:48:10.021Z,82.95
2019-05-19T17:50:21.222Z,83.53
2019-05-19T17:52:32.067Z,83.84
2019-05-19T17:54:43.101Z,83.76
2019-05-19T17:56:55.172Z,84.37
2019-05-19T17:59:16.090Z,83.96
2019-05-19T18:01:18.997Z,83.73
2019-05-19T18:03:30.300Z,83.66
2019-05-19T18:05:41.209Z,83.65
2019-05-19T18:07:52.066Z,83.53
2019-05-19T18:10:04.507Z,82.98
2019-05-19T18:12:15.373Z,83.35
2019-05-19T18:14:26.530Z,83.04
2019-05-19T18:16:37.828Z,83.32
2019-05-19T18:18:48.731Z,83.15
2019-05-19T18:20:59.797Z,83.03
2019-05-19T18:23:10.657Z,83.23
2019-05-19T18:25:21.741Z,83.08
2019-05-19T18:27:32.772Z,82.17
2019-05-19T18:29:44.539Z,81.65
2019-05-19T18:31:55.411Z,81.97
2019-05-19T18:34:06.387Z,81.57
2019-05-19T18:36:17.466Z,81.68
2019-05-19T18:38:30.249Z,81.60
2019-05-19T18:40:41.228Z,81.74
2019-05-19T18:42:52.210Z,82.01
2019-05-19T18:45:04.553Z,82.21
2019-05-19T18:47:15.496Z,82.37
2019-05-19T18:49:26.331Z,82.85
2019-05-19T18:51:37.216Z,82.67
2019-05-19T18:53:48.064Z,82.50
2019-05-19T18:56:00.841Z,82.41
2019-05-19T18:58:11.686Z,82.39
2019-05-19T19:00:34.390Z,82.60
2019-05-19T19:02:47.884Z,82.49
2019-05-19T19:04:58.150Z,82.38
2019-05-19T19:07:09.146Z,82.33
2019-05-19T19:09:20.145Z,81.99
2019-05-19T19:11:31.114Z,81.77
2019-05-19T19:13:42.188Z,81.72
2019-05-19T19:15:53.260Z,81.56
2019-05-19T19:18:04.413Z,81.23
2019-05-19T19:20:17.309Z,81.31
2019-05-19T19:22:28.192Z,81.61
2019-05-19T19:24:39.120Z,82.04
2019-05-19T19:26:49.977Z,82.05
2019-05-19T19:29:02.857Z,82.25
2019-05-19T19:31:13.856Z,82.04
2019-05-19T19:33:24.846Z,81.50
2019-05-19T19:35:39.197Z,81.36
2019-05-19T19:37:48.518Z,81.23
2019-05-19T19:39:59.539Z,81.50
2019-05-19T19:42:10.638Z,81.59
2019-05-19T19:44:21.638Z,81.79
2019-05-19T19:46:32.601Z,81.73
2019-05-19T19:48:43.489Z,81.52
2019-05-19T19:50:54.421Z,81.57
2019-05-19T19:53:05.430Z,81.90
2019-05-19T19:55:16.401Z,82.33
2019-05-19T19:57:29.294Z,82.88
2019-05-19T19:59:40.155Z,83.35
2019-05-19T20:01:51.066Z,82.43
2019-05-19T20:04:02.043Z,82.43
2019-05-19T20:06:13.170Z,82.57
2019-05-19T20:08:24.036Z,82.36
2019-05-19T20:10:35.696Z,82.40
2019-05-19T20:12:46.571Z,83.16
2019-05-19T20:14:57.472Z,83.22
2019-05-19T20:17:08.334Z,83.57
2019-05-19T20:19:19.244Z,83.67
2019-05-19T20:21:30.290Z,84.43
2019-05-19T20:23:41.182Z,86.00
2019-05-19T20:25:52.137Z,85.49
2019-05-19T20:28:02.992Z,86.15
2019-05-19T20:30:13.985Z,87.04
2019-05-19T20:32:24.963Z,87.10
2019-05-19T20:34:35.829Z,87.31
2019-05-19T20:36:48.668Z,87.13
2019-05-19T20:38:59.544Z,87.00
2019-05-19T20:41:10.411Z,86.84
2019-05-19T20:43:21.275Z,86.69
2019-05-19T20:45:32.473Z,85.75
2019-05-19T20:47:43.538Z,85.53
2019-05-19T20:49:54.559Z,85.92
2019-05-19T20:52:05.528Z,86.11
2019-05-19T20:54:16.402Z,85.85
2019-05-19T20:56:27.246Z,85.70
2019-05-19T20:58:38.081Z,85.67
2019-05-19T21:00:51.344Z,86.25
2019-05-19T21:03:01.835Z,85.79
2019-05-19T21:05:12.798Z,84.91
2019-05-19T21:07:23.733Z,84.55
2019-05-19T21:09:34.765Z,84.60
2019-05-19T21:11:45.598Z,84.75
2019-05-19T21:13:56.464Z,84.22
2019-05-19T21:16:07.318Z,84.10
2019-05-19T21:18:18.275Z,84.86
2019-05-19T21:20:29.176Z,84.09
2019-05-19T21:22:40.049Z,83.82
2019-05-19T21:24:50.905Z,83.97
2019-05-19T21:27:01.743Z,81.40
2019-05-19T21:29:12.596Z,82.71
2019-05-19T21:31:23.499Z,83.74
2019-05-19T21:33:34.488Z,83.94
2019-05-19T21:35:47.257Z,84.39
2019-05-19T21:37:58.105Z,85.25
2019-05-19T21:40:09.467Z,85.94
2019-05-19T21:42:20.454Z,87.10
2019-05-19T21:44:31.394Z,87.10
2019-05-19T21:46:44.365Z,86.12
2019-05-19T21:48:55.207Z,86.38
2019-05-19T21:51:06.203Z,87.70
2019-05-19T21:53:17.044Z,88.58
2019-05-19T21:55:28.005Z,88.12
2019-05-19T21:57:38.856Z,88.07
2019-05-19T21:59:49.725Z,87.77
2019-05-19T22:02:00.583Z,87.66
2019-05-19T22:04:11.439Z,87.98
2019-05-19T22:06:24.307Z,88.11
2019-05-19T22:08:35.398Z,87.84
2019-05-19T22:10:46.344Z,87.80
2019-05-19T22:12:57.206Z,88.68
2019-05-19T22:15:10.363Z,89.37
2019-05-19T22:17:21.244Z,89.39
2019-05-19T22:19:32.146Z,89.23
2019-05-19T22:21:43.109Z,88.89
2019-05-19T22:23:53.980Z,88.53
2019-05-19T22:26:04.909Z,88.36
2019-05-19T22:28:15.793Z,88.54
2019-05-19T22:30:26.870Z,88.54
2019-05-19T22:32:37.789Z,88.79
2019-05-19T22:34:48.683Z,88.99
2019-05-19T22:36:59.474Z,89.01
2019-05-19T22:39:10.333Z,89.00
2019-05-19T22:41:21.170Z,89.01
2019-05-19T22:43:32.037Z,89.07
2019-05-19T22:45:42.872Z,88.79
2019-05-19T22:47:53.748Z,88.61
2019-05-19T22:50:06.209Z,88.59
2019-05-19T22:52:17.066Z,87.83
2019-05-19T22:54:27.948Z,88.14
2019-05-19T22:56:38.794Z,87.63
2019-05-19T22:58:49.685Z,87.82
2019-05-19T23:01:00.650Z,87.82
2019-05-19T23:03:11.526Z,87.68
2019-05-19T23:05:22.415Z,87.55
2019-05-19T23:07:33.379Z,87.60
2019-05-19T23:09:44.350Z,87.44
2019-05-19T23:11:55.204Z,87.51
2019-05-19T23:14:06.174Z,88.00
2019-05-19T23:16:16.999Z,87.99
2019-05-19T23:18:27.869Z,88.09
2019-05-19T23:20:39.091Z,88.29
2019-05-19T23:22:50.106Z,88.40
2019-05-19T23:25:04.831Z,88.25
2019-05-19T23:27:15.656Z,88.25
2019-05-19T23:29:26.618Z,88.25
2019-05-19T23:31:37.499Z,87.57
2019-05-19T23:33:48.471Z,87.57
2019-05-19T23:35:59.338Z,88.24
2019-05-19T23:38:10.181Z,87.96
2019-05-19T23:40:21.030Z,88.17
2019-05-19T23:42:32.018Z,87.93
2019-05-19T23:44:42.899Z,88.13
2019-05-19T23:46:53.722Z,88.45
2019-05-19T23:49:04.595Z,88.45
2019-05-19T23:51:15.426Z,88.50
2019-05-19T23:53:26.269Z,88.62
2019-05-19T23:55:37.138Z,88.38
2019-05-19T23:57:47.986Z,88.28
2019-05-19T23:59:58.836Z,88.30
